createdAt,value
2023-05-01T00:01:32.068Z,7.58
2023-05-01T00:03:59.027Z,7.52
2023-05-01T00:06:26.238Z,7.49
2023-05-01T00:08:52.823Z,7.42
2023-05-01T00:11:19.434Z,7.38
2023-05-01T00:13:46.382Z,7.36
2023-05-01T00:16:13.362Z,7.32
2023-05-01T00:18:39.959Z,7.28
2023-05-01T00:21:06.519Z,7.25
2023-05-01T00:23:33.290Z,7.22
2023-05-01T00:25:59.940Z,7.19
2023-05-01T00:28:26.741Z,7.17
2023-05-01T00:30:53.340Z,7.11
2023-05-01T00:33:19.895Z,7.08
2023-05-01T00:35:46.832Z,7.07
2023-05-01T00:38:13.707Z,7.05
2023-05-01T00:40:44.479Z,6.99
2023-05-01T00:43:12.133Z,6.97
2023-05-01T00:45:39.990Z,6.96
2023-05-01T00:48:06.759Z,6.92
2023-05-01T00:50:33.557Z,6.85
2023-05-01T00:53:00.357Z,6.83
2023-05-01T00:55:27.144Z,6.81
2023-05-01T00:57:55.224Z,6.79
2023-05-01T01:00:24.602Z,6.72
2023-05-01T01:02:52.133Z,6.74
2023-05-01T01:05:24.603Z,6.70
2023-05-01T01:08:05.350Z,6.64
2023-05-01T01:10:48.341Z,6.62
2023-05-01T01:13:23.001Z,6.56
2023-05-01T01:15:52.193Z,6.54
2023-05-01T01:18:33.166Z,6.48
2023-05-01T01:21:12.760Z,6.49
2023-05-01T01:23:48.307Z,6.49
2023-05-01T01:26:24.016Z,6.49
2023-05-01T01:29:02.655Z,6.51
2023-05-01T01:31:56.660Z,6.52
2023-05-01T01:34:28.124Z,6.51
2023-05-01T01:37:04.970Z,6.45
2023-05-01T01:39:55.367Z,6.42
2023-05-01T01:42:30.672Z,6.40
2023-05-01T01:45:03.017Z,6.38
2023-05-01T01:47:32.710Z,6.37
2023-05-01T01:50:06.754Z,6.29
2023-05-01T01:52:35.398Z,6.24
2023-05-01T01:55:11.177Z,6.22
2023-05-01T01:57:39.709Z,6.20
2023-05-01T02:00:11.102Z,6.20
2023-05-01T02:02:40.054Z,6.17
2023-05-01T02:05:08.860Z,6.13
2023-05-01T02:07:38.678Z,6.10
2023-05-01T02:10:06.895Z,6.09
2023-05-01T02:12:34.194Z,6.07
2023-05-01T02:15:01.926Z,6.06
2023-05-01T02:17:29.158Z,6.04
2023-05-01T02:19:57.751Z,6.04
2023-05-01T02:22:26.806Z,6.04
2023-05-01T02:24:55.963Z,6.04
2023-05-01T02:27:32.457Z,6.08
2023-05-01T02:29:59.237Z,6.12
2023-05-01T02:32:26.551Z,6.13
2023-05-01T02:34:53.206Z,6.17
2023-05-01T02:37:20.668Z,6.21
2023-05-01T02:39:47.769Z,6.22
2023-05-01T02:42:16.632Z,6.29
2023-05-01T02:44:51.884Z,6.33
2023-05-01T02:47:23.357Z,6.36
2023-05-01T02:49:51.774Z,6.38
2023-05-01T02:52:19.486Z,6.44
2023-05-01T02:54:47.259Z,6.45
2023-05-01T02:57:14.106Z,6.47
2023-05-01T02:59:41.126Z,6.50
2023-05-01T03:02:07.724Z,6.56
2023-05-01T03:04:34.571Z,6.61
2023-05-01T03:07:01.462Z,6.64
2023-05-01T03:09:28.084Z,6.67
2023-05-01T03:11:54.631Z,6.71
2023-05-01T03:14:21.195Z,6.77
2023-05-01T03:16:47.956Z,6.83
2023-05-01T03:19:14.674Z,6.87
2023-05-01T03:21:41.296Z,6.95
2023-05-01T03:24:08.095Z,7.03
2023-05-01T03:26:34.732Z,7.10
2023-05-01T03:29:01.574Z,7.14
2023-05-01T03:31:28.313Z,7.20
2023-05-01T03:33:55.017Z,7.25
2023-05-01T03:36:25.069Z,7.31
2023-05-01T03:38:51.619Z,7.37
2023-05-01T03:41:18.295Z,7.43
2023-05-01T03:43:45.019Z,7.50
2023-05-01T03:46:11.732Z,7.57
2023-05-01T03:48:38.432Z,7.62
2023-05-01T03:51:05.261Z,7.72
2023-05-01T03:53:32.596Z,7.83
2023-05-01T03:55:59.228Z,7.91
2023-05-01T03:58:25.795Z,8.03
2023-05-01T04:00:54.447Z,8.14
2023-05-01T04:03:21.077Z,8.23
2023-05-01T04:05:47.820Z,8.31
2023-05-01T04:08:14.405Z,8.40
2023-05-01T04:10:41.008Z,8.49
2023-05-01T04:13:07.600Z,8.56
2023-05-01T04:15:34.201Z,8.62
2023-05-01T04:18:00.822Z,8.69
2023-05-01T04:20:27.500Z,8.75
2023-05-01T04:22:54.976Z,8.79
2023-05-01T04:25:21.543Z,8.83
2023-05-01T04:27:48.463Z,8.89
2023-05-01T04:30:15.056Z,8.93
2023-05-01T04:32:41.690Z,8.98
2023-05-01T04:35:09.500Z,9.04
2023-05-01T04:37:36.680Z,9.07
2023-05-01T04:40:03.476Z,9.12
2023-05-01T04:42:33.720Z,9.17
2023-05-01T04:45:04.348Z,9.22
2023-05-01T04:47:31.180Z,9.29
2023-05-01T04:49:58.206Z,9.34
2023-05-01T04:52:25.060Z,9.40
2023-05-01T04:54:51.819Z,9.44
2023-05-01T04:57:18.659Z,9.52
2023-05-01T04:59:45.280Z,9.57
2023-05-01T05:02:11.838Z,9.65
2023-05-01T05:04:38.370Z,9.74
2023-05-01T05:07:04.921Z,9.83
2023-05-01T05:09:31.518Z,9.93
2023-05-01T05:11:58.105Z,9.99
2023-05-01T05:14:24.751Z,10.09
2023-05-01T05:16:51.747Z,10.17
2023-05-01T05:19:18.394Z,10.21
2023-05-01T05:21:44.989Z,10.27
2023-05-01T05:24:11.556Z,10.37
2023-05-01T05:26:38.152Z,10.50
2023-05-01T05:29:04.786Z,10.59
2023-05-01T05:31:31.458Z,10.68
2023-05-01T05:33:58.040Z,10.75
2023-05-01T05:36:25.053Z,10.81
2023-05-01T05:38:51.788Z,10.84
2023-05-01T05:41:18.379Z,10.90
2023-05-01T05:43:44.950Z,10.95
2023-05-01T05:46:11.642Z,11.08
2023-05-01T05:48:38.263Z,11.09
2023-05-01T05:51:04.967Z,11.18
2023-05-01T05:53:31.634Z,11.19
2023-05-01T05:55:58.184Z,11.21
2023-05-01T05:58:24.841Z,11.21
2023-05-01T06:00:53.146Z,11.20
2023-05-01T06:03:19.918Z,11.23
2023-05-01T06:05:47.167Z,11.30
2023-05-01T06:08:14.636Z,11.35
2023-05-01T06:10:43.884Z,11.45
2023-05-01T06:13:13.996Z,11.50
2023-05-01T06:15:41.851Z,11.54
2023-05-01T06:18:09.012Z,11.56
2023-05-01T06:20:36.140Z,11.58
2023-05-01T06:23:02.793Z,11.60
2023-05-01T06:25:30.080Z,11.64
2023-05-01T06:27:56.677Z,11.71
2023-05-01T06:30:23.212Z,11.77
2023-05-01T06:32:50.054Z,11.82
2023-05-01T06:35:17.076Z,11.84
2023-05-01T06:37:43.667Z,11.87
2023-05-01T06:40:11.069Z,11.97
2023-05-01T06:42:39.138Z,12.06
2023-05-01T06:45:09.105Z,12.15
2023-05-01T06:47:35.822Z,12.25
2023-05-01T06:50:05.559Z,12.34
2023-05-01T06:52:32.572Z,12.44
2023-05-01T06:54:59.360Z,12.49
2023-05-01T06:57:25.940Z,12.58
2023-05-01T06:59:52.569Z,12.67
2023-05-01T07:02:19.218Z,12.78
2023-05-01T07:04:46.351Z,12.87
2023-05-01T07:07:13.435Z,12.93
2023-05-01T07:09:40.891Z,13.00
2023-05-01T07:12:07.489Z,13.07
2023-05-01T07:14:37.175Z,13.12
2023-05-01T07:17:04.001Z,13.15
2023-05-01T07:19:30.588Z,13.25
2023-05-01T07:21:57.225Z,13.32
2023-05-01T07:24:23.970Z,13.37
2023-05-01T07:26:51.776Z,13.40
2023-05-01T07:29:18.489Z,13.44
2023-05-01T07:31:46.265Z,13.53
2023-05-01T07:34:12.970Z,13.60
2023-05-01T07:36:39.828Z,13.72
2023-05-01T07:39:06.777Z,13.85
2023-05-01T07:41:33.402Z,13.96
2023-05-01T07:44:00.207Z,14.11
2023-05-01T07:46:27.199Z,14.28
2023-05-01T07:48:53.935Z,14.42
2023-05-01T07:51:20.707Z,14.52
2023-05-01T07:53:51.147Z,14.63
2023-05-01T07:56:17.932Z,14.76
2023-05-01T07:58:44.536Z,14.87
2023-05-01T08:01:11.240Z,14.98
2023-05-01T08:03:38.093Z,15.07
2023-05-01T08:06:05.778Z,15.19
2023-05-01T08:08:32.376Z,15.33
2023-05-01T08:10:58.925Z,15.43
2023-05-01T08:13:25.676Z,15.51
2023-05-01T08:15:52.633Z,15.63
2023-05-01T08:18:21.796Z,15.79
2023-05-01T08:20:48.494Z,15.90
2023-05-01T08:23:18.127Z,16.13
2023-05-01T08:25:50.955Z,16.27
2023-05-01T08:28:20.569Z,16.41
2023-05-01T08:30:49.305Z,16.53
2023-05-01T08:33:16.555Z,16.62
2023-05-01T08:35:43.429Z,16.70
2023-05-01T08:38:11.672Z,16.85
2023-05-01T08:40:39.410Z,17.01
2023-05-01T08:43:06.106Z,17.12
2023-05-01T08:45:37.909Z,17.20
2023-05-01T08:48:10.239Z,17.36
2023-05-01T08:50:39.490Z,17.52
2023-05-01T08:53:06.859Z,17.67
2023-05-01T08:55:35.175Z,17.82
2023-05-01T08:58:04.002Z,17.97
2023-05-01T09:00:34.285Z,18.04
2023-05-01T09:03:02.976Z,18.16
2023-05-01T09:05:32.257Z,18.27
2023-05-01T09:07:59.188Z,18.43
2023-05-01T09:10:26.416Z,18.51
2023-05-01T09:13:00.020Z,18.61
2023-05-01T09:15:27.870Z,18.56
2023-05-01T09:17:55.179Z,18.60
2023-05-01T09:20:23.396Z,18.77
2023-05-01T09:22:50.585Z,18.91
2023-05-01T09:25:17.727Z,19.01
2023-05-01T09:27:51.511Z,19.14
2023-05-01T09:30:38.870Z,19.30
2023-05-01T09:33:16.961Z,19.45
2023-05-01T09:35:50.569Z,19.52
2023-05-01T09:38:25.475Z,19.62
2023-05-01T09:40:56.778Z,19.79
2023-05-01T09:43:28.141Z,19.91
2023-05-01T09:46:13.287Z,20.07
2023-05-01T09:48:40.171Z,20.21
2023-05-01T09:51:22.009Z,20.37
2023-05-01T09:53:49.544Z,20.53
2023-05-01T09:56:16.372Z,20.65
2023-05-01T09:58:42.996Z,20.79
2023-05-01T10:01:09.586Z,20.85
2023-05-01T10:03:38.149Z,20.92
2023-05-01T10:06:05.150Z,20.96
2023-05-01T10:08:48.628Z,20.90
2023-05-01T10:11:15.906Z,20.85
2023-05-01T10:13:42.723Z,20.94
2023-05-01T10:16:28.867Z,21.17
2023-05-01T10:19:00.292Z,21.14
2023-05-01T10:21:27.914Z,21.16
2023-05-01T10:23:55.866Z,21.33
2023-05-01T10:26:22.436Z,21.48
2023-05-01T10:28:49.913Z,21.59
2023-05-01T10:31:17.071Z,21.87
2023-05-01T10:33:45.590Z,22.10
2023-05-01T10:36:19.996Z,22.11
2023-05-01T10:38:48.534Z,22.23
2023-05-01T10:41:16.680Z,22.44
2023-05-01T10:43:43.924Z,22.60
2023-05-01T10:46:10.522Z,22.67
2023-05-01T10:48:43.999Z,22.82
2023-05-01T10:51:17.272Z,22.95
2023-05-01T10:53:46.165Z,22.87
2023-05-01T10:56:38.752Z,22.84
2023-05-01T10:59:06.421Z,22.90
2023-05-01T11:01:48.063Z,22.81
2023-05-01T11:04:23.847Z,23.05
2023-05-01T11:07:05.448Z,23.23
2023-05-01T11:09:39.426Z,23.14
2023-05-01T11:12:07.270Z,23.26
2023-05-01T11:14:57.223Z,23.50
2023-05-01T11:17:42.774Z,23.67
2023-05-01T11:20:13.057Z,23.73
2023-05-01T11:22:47.218Z,23.65
2023-05-01T11:25:27.319Z,23.76
2023-05-01T11:27:56.264Z,23.65
2023-05-01T11:30:23.225Z,23.64
2023-05-01T11:32:51.274Z,23.65
2023-05-01T11:35:23.095Z,23.81
2023-05-01T11:37:55.959Z,23.93
2023-05-01T11:40:34.559Z,23.84
2023-05-01T11:43:04.976Z,23.85
2023-05-01T11:45:32.327Z,24.05
2023-05-01T11:48:02.112Z,24.26
2023-05-01T11:50:35.593Z,24.52
2023-05-01T11:53:03.461Z,24.77
2023-05-01T11:55:34.284Z,24.84
2023-05-01T11:58:02.072Z,24.88
2023-05-01T12:00:34.849Z,24.98
2023-05-01T12:03:04.082Z,24.62
2023-05-01T12:05:32.258Z,24.65
2023-05-01T12:08:18.560Z,24.84
2023-05-01T12:10:47.778Z,25.06
2023-05-01T12:13:15.685Z,24.67
2023-05-01T12:15:45.269Z,24.40
2023-05-01T12:18:13.545Z,24.71
2023-05-01T12:20:48.909Z,24.98
2023-05-01T12:23:16.927Z,25.12
2023-05-01T12:25:45.110Z,25.14
2023-05-01T12:28:20.388Z,25.23
2023-05-01T12:30:49.306Z,25.26
2023-05-01T12:33:20.712Z,25.58
2023-05-01T12:35:49.320Z,25.75
2023-05-01T12:38:15.857Z,25.78
2023-05-01T12:40:57.670Z,25.67
2023-05-01T12:43:38.180Z,25.67
2023-05-01T12:46:05.985Z,25.82
2023-05-01T12:48:35.903Z,25.80
2023-05-01T12:51:02.623Z,25.88
2023-05-01T12:53:29.802Z,26.04
2023-05-01T12:55:58.661Z,26.26
2023-05-01T12:58:45.565Z,26.02
2023-05-01T13:01:12.983Z,25.85
2023-05-01T13:03:45.016Z,25.64
2023-05-01T13:06:12.224Z,25.66
2023-05-01T13:08:40.411Z,25.82
2023-05-01T13:11:17.307Z,25.88
2023-05-01T13:13:49.809Z,25.71
2023-05-01T13:16:17.016Z,25.65
2023-05-01T13:18:48.461Z,25.73
2023-05-01T13:21:20.680Z,25.89
2023-05-01T13:24:00.369Z,26.02
2023-05-01T13:26:32.693Z,26.23
2023-05-01T13:29:01.956Z,26.40
2023-05-01T13:31:29.413Z,26.76
2023-05-01T13:33:58.354Z,27.07
2023-05-01T13:36:27.469Z,27.66
2023-05-01T13:38:56.874Z,28.06
2023-05-01T13:41:26.367Z,28.57
2023-05-01T13:43:54.915Z,28.75
2023-05-01T13:46:23.326Z,29.04
2023-05-01T13:48:50.547Z,29.18
2023-05-01T13:51:25.151Z,29.46
2023-05-01T13:53:53.981Z,29.35
2023-05-01T13:56:21.778Z,29.63
2023-05-01T13:58:50.175Z,30.17
2023-05-01T14:01:22.362Z,30.61
2023-05-01T14:03:49.656Z,31.23
2023-05-01T14:06:19.037Z,31.69
2023-05-01T14:08:48.003Z,32.17
2023-05-01T14:11:15.141Z,32.54
2023-05-01T14:13:46.286Z,32.97
2023-05-01T14:16:26.318Z,32.61
2023-05-01T14:18:57.059Z,32.72
2023-05-01T14:21:27.851Z,33.08
2023-05-01T14:23:55.379Z,33.21
2023-05-01T14:26:24.094Z,32.95
2023-05-01T14:28:50.922Z,32.75
2023-05-01T14:31:27.193Z,33.09
2023-05-01T14:33:59.315Z,33.05
2023-05-01T14:36:28.404Z,33.40
2023-05-01T14:38:59.377Z,34.09
2023-05-01T14:41:26.146Z,34.33
2023-05-01T14:43:55.912Z,35.04
2023-05-01T14:46:33.866Z,34.64
2023-05-01T14:49:01.577Z,35.01
2023-05-01T14:51:29.452Z,34.30
2023-05-01T14:53:56.291Z,33.98
2023-05-01T14:56:23.280Z,33.44
2023-05-01T14:58:50.155Z,32.94
2023-05-01T15:01:18.333Z,33.21
2023-05-01T15:03:45.562Z,32.85
2023-05-01T15:06:13.718Z,32.53
2023-05-01T15:08:40.367Z,31.64
2023-05-01T15:11:07.724Z,31.14
2023-05-01T15:13:34.565Z,31.00
2023-05-01T15:16:01.302Z,31.43
2023-05-01T15:18:31.173Z,32.27
2023-05-01T15:20:57.691Z,32.71
2023-05-01T15:23:27.275Z,32.88
2023-05-01T15:25:54.279Z,32.46
2023-05-01T15:28:21.430Z,31.73
2023-05-01T15:30:48.025Z,30.10
2023-05-01T15:33:18.033Z,29.15
2023-05-01T15:35:46.697Z,28.42
2023-05-01T15:38:13.369Z,27.97
2023-05-01T15:40:42.521Z,27.74
2023-05-01T15:43:09.355Z,27.96
2023-05-01T15:45:36.109Z,27.96
2023-05-01T15:48:03.247Z,28.47
2023-05-01T15:50:29.895Z,28.60
2023-05-01T15:52:57.195Z,28.36
2023-05-01T15:55:23.720Z,27.86
2023-05-01T15:57:50.498Z,27.69
2023-05-01T16:00:17.747Z,27.31
2023-05-01T16:02:44.839Z,26.79
2023-05-01T16:05:16.535Z,26.11
2023-05-01T16:07:45.367Z,25.92
2023-05-01T16:10:12.535Z,25.46
2023-05-01T16:12:39.299Z,25.04
2023-05-01T16:15:06.202Z,24.75
2023-05-01T16:17:39.250Z,24.23
2023-05-01T16:20:10.976Z,23.89
2023-05-01T16:22:41.278Z,23.67
2023-05-01T16:25:09.834Z,23.26
2023-05-01T16:27:44.299Z,23.20
2023-05-01T16:30:14.363Z,22.99
2023-05-01T16:32:41.676Z,22.87
2023-05-01T16:35:18.329Z,22.62
2023-05-01T16:37:45.194Z,22.46
2023-05-01T16:40:18.029Z,22.22
2023-05-01T16:42:54.853Z,22.10
2023-05-01T16:45:22.034Z,21.83
2023-05-01T16:47:48.692Z,21.54
2023-05-01T16:50:16.473Z,21.29
2023-05-01T16:52:43.127Z,21.08
2023-05-01T16:55:10.181Z,21.06
2023-05-01T16:57:36.857Z,21.00
2023-05-01T17:00:05.171Z,20.82
2023-05-01T17:02:33.368Z,20.58
2023-05-01T17:05:00.381Z,20.52
2023-05-01T17:07:27.034Z,20.48
2023-05-01T17:09:53.643Z,20.44
2023-05-01T17:12:20.449Z,20.34
2023-05-01T17:14:47.058Z,20.22
2023-05-01T17:17:13.663Z,20.04
2023-05-01T17:19:40.344Z,19.94
2023-05-01T17:22:07.559Z,19.79
2023-05-01T17:24:35.428Z,19.78
2023-05-01T17:27:03.177Z,19.71
2023-05-01T17:29:29.698Z,19.63
2023-05-01T17:31:56.357Z,19.59
2023-05-01T17:34:22.995Z,19.51
2023-05-01T17:36:49.588Z,19.40
2023-05-01T17:39:16.675Z,19.29
2023-05-01T17:41:43.482Z,19.14
2023-05-01T17:44:10.056Z,18.99
2023-05-01T17:46:38.899Z,18.91
2023-05-01T17:49:06.170Z,18.89
2023-05-01T17:51:33.505Z,18.76
2023-05-01T17:54:01.464Z,18.68
2023-05-01T17:56:28.299Z,18.54
2023-05-01T17:58:55.166Z,18.38
2023-05-01T18:01:21.941Z,18.28
2023-05-01T18:03:49.121Z,18.25
2023-05-01T18:06:16.381Z,18.21
2023-05-01T18:08:43.002Z,18.09
2023-05-01T18:11:09.578Z,18.02
2023-05-01T18:13:39.731Z,18.03
2023-05-01T18:16:06.642Z,17.91
2023-05-01T18:18:33.323Z,17.92
2023-05-01T18:20:59.892Z,17.82
2023-05-01T18:23:26.537Z,17.68
2023-05-01T18:25:54.871Z,17.48
2023-05-01T18:28:21.804Z,17.34
2023-05-01T18:30:48.409Z,17.22
2023-05-01T18:33:15.101Z,17.14
2023-05-01T18:35:42.817Z,16.99
2023-05-01T18:38:10.440Z,16.85
2023-05-01T18:40:37.793Z,16.74
2023-05-01T18:43:04.553Z,16.49
2023-05-01T18:45:31.192Z,16.33
2023-05-01T18:48:00.431Z,16.23
2023-05-01T18:50:27.289Z,16.12
2023-05-01T18:52:53.826Z,16.01
2023-05-01T18:55:20.506Z,15.93
2023-05-01T18:57:48.494Z,15.83
2023-05-01T19:00:16.839Z,15.81
2023-05-01T19:02:44.662Z,15.64
2023-05-01T19:05:11.344Z,15.56
2023-05-01T19:07:37.978Z,15.36
2023-05-01T19:10:04.891Z,15.19
2023-05-01T19:12:32.408Z,15.05
2023-05-01T19:14:58.979Z,14.99
2023-05-01T19:17:26.036Z,14.85
2023-05-01T19:19:52.623Z,14.72
2023-05-01T19:22:19.563Z,14.59
2023-05-01T19:24:46.191Z,14.46
2023-05-01T19:27:12.814Z,14.32
2023-05-01T19:29:39.713Z,14.26
2023-05-01T19:32:07.131Z,14.08
2023-05-01T19:34:33.773Z,13.99
2023-05-01T19:37:02.050Z,13.94
2023-05-01T19:39:29.292Z,13.82
2023-05-01T19:41:55.937Z,13.75
2023-05-01T19:44:22.477Z,13.63
2023-05-01T19:46:49.100Z,13.50
2023-05-01T19:49:15.692Z,13.40
2023-05-01T19:51:42.397Z,13.25
2023-05-01T19:54:08.973Z,13.15
2023-05-01T19:56:35.580Z,13.06
2023-05-01T19:59:02.154Z,12.92
2023-05-01T20:01:31.362Z,12.86
2023-05-01T20:03:58.052Z,12.84
2023-05-01T20:06:24.725Z,12.80
2023-05-01T20:08:51.343Z,12.78
2023-05-01T20:11:17.894Z,12.67
2023-05-01T20:13:45.495Z,12.63
2023-05-01T20:16:12.243Z,12.53
2023-05-01T20:18:38.843Z,12.45
2023-05-01T20:21:06.129Z,12.37
2023-05-01T20:23:34.424Z,12.28
2023-05-01T20:26:01.421Z,12.17
2023-05-01T20:28:28.548Z,12.16
2023-05-01T20:30:56.104Z,12.01
2023-05-01T20:33:22.900Z,11.92
2023-05-01T20:35:49.531Z,11.80
2023-05-01T20:38:16.095Z,11.81
2023-05-01T20:40:42.954Z,11.74
2023-05-01T20:43:09.570Z,11.68
2023-05-01T20:45:36.176Z,11.62
2023-05-01T20:48:02.982Z,11.61
2023-05-01T20:50:29.647Z,11.54
2023-05-01T20:52:56.389Z,11.49
2023-05-01T20:55:23.933Z,11.45
2023-05-01T20:57:50.591Z,11.43
2023-05-01T21:00:17.363Z,11.43
2023-05-01T21:02:44.227Z,11.34
2023-05-01T21:05:11.475Z,11.28
2023-05-01T21:07:39.221Z,11.27
2023-05-01T21:10:08.825Z,11.18
2023-05-01T21:12:35.631Z,11.10
2023-05-01T21:15:03.583Z,11.11
2023-05-01T21:17:35.626Z,11.06
2023-05-01T21:20:05.601Z,11.01
2023-05-01T21:22:33.598Z,11.01
2023-05-01T21:25:00.395Z,10.92
2023-05-01T21:27:27.494Z,10.89
2023-05-01T21:29:59.289Z,10.91
2023-05-01T21:32:32.546Z,10.92
2023-05-01T21:35:03.737Z,10.96
2023-05-01T21:37:30.472Z,10.95
2023-05-01T21:40:01.339Z,10.96
2023-05-01T21:42:35.570Z,10.95
2023-05-01T21:45:11.594Z,10.93
2023-05-01T21:47:44.326Z,10.90
2023-05-01T21:50:20.232Z,10.91
2023-05-01T21:52:48.724Z,10.85
2023-05-01T21:55:25.479Z,10.84
2023-05-01T21:57:53.325Z,10.81
2023-05-01T22:00:20.619Z,10.82
2023-05-01T22:02:48.916Z,10.83
2023-05-01T22:05:18.015Z,10.80
2023-05-01T22:07:47.036Z,10.81
2023-05-01T22:10:17.060Z,10.79
2023-05-01T22:12:44.664Z,10.75
2023-05-01T22:15:12.704Z,10.72
2023-05-01T22:17:40.580Z,10.67
2023-05-01T22:20:09.163Z,10.69
2023-05-01T22:22:37.127Z,10.67
2023-05-01T22:25:04.301Z,10.67
2023-05-01T22:27:32.053Z,10.58
2023-05-01T22:29:58.856Z,10.56
2023-05-01T22:32:25.747Z,10.55
2023-05-01T22:34:52.485Z,10.51
2023-05-01T22:37:19.680Z,10.48
2023-05-01T22:39:46.354Z,10.52
2023-05-01T22:42:13.027Z,10.54
2023-05-01T22:44:39.653Z,10.52
2023-05-01T22:47:07.067Z,10.44
2023-05-01T22:49:33.650Z,10.43
2023-05-01T22:52:00.254Z,10.46
2023-05-01T22:54:26.822Z,10.44
2023-05-01T22:56:53.526Z,10.45
2023-05-01T22:59:21.497Z,10.32
2023-05-01T23:01:48.515Z,10.28
2023-05-01T23:04:15.406Z,10.20
2023-05-01T23:06:43.219Z,10.15
2023-05-01T23:09:09.923Z,10.18
2023-05-01T23:11:36.543Z,10.19
2023-05-01T23:14:03.260Z,10.12
2023-05-01T23:16:35.625Z,10.17
2023-05-01T23:19:02.353Z,10.15
2023-05-01T23:21:29.343Z,10.17
2023-05-01T23:23:55.896Z,10.18
2023-05-01T23:26:26.868Z,10.21
2023-05-01T23:28:53.903Z,10.24
2023-05-01T23:31:29.285Z,10.21
2023-05-01T23:33:56.017Z,10.17
2023-05-01T23:36:22.631Z,10.18
2023-05-01T23:38:49.658Z,10.21
2023-05-01T23:41:16.599Z,10.24
2023-05-01T23:43:46.513Z,10.27
2023-05-01T23:46:13.407Z,10.26
2023-05-01T23:48:42.155Z,10.30
2023-05-01T23:51:09.072Z,10.36
2023-05-01T23:53:35.706Z,10.31
2023-05-01T23:56:02.292Z,10.30
2023-05-01T23:58:28.839Z,10.31
